sensor_id;sensor_type;location;lat;lon;timestamp;P1;durP1;ratioP1;P2;durP2;ratioP2
6850;SDS011;3464;42.728;23.296;2023-11-19T00:01:31;9.90;;;3.60;;
6850;SDS011;3464;42.728;23.296;2023-11-19T00:03:57;10.10;;;3.53;;
6850;SDS011;3464;42.728;23.296;2023-11-19T00:06:24;10.57;;;3.40;;
6850;SDS011;3464;42.728;23.296;2023-11-19T00:08:51;9.60;;;3.53;;
6850;SDS011;3464;42.728;23.296;2023-11-19T00:11:17;8.97;;;3.27;;
6850;SDS011;3464;42.728;23.296;2023-11-19T00:13:44;9.03;;;3.23;;
6850;SDS011;3464;42.728;23.296;2023-11-19T00:16:11;10.10;;;3.30;;
6850;SDS011;3464;42.728;23.296;2023-11-19T00:18:37;11.30;;;3.60;;
6850;SDS011;3464;42.728;23.296;2023-11-19T00:21:05;10.97;;;3.80;;
6850;SDS011;3464;42.728;23.296;2023-11-19T00:23:32;9.30;;;3.37;;
6850;SDS011;3464;42.728;23.296;2023-11-19T00:26:02;10.20;;;3.27;;
6850;SDS011;3464;42.728;23.296;2023-11-19T00:28:29;9.13;;;3.27;;
6850;SDS011;3464;42.728;23.296;2023-11-19T00:30:56;10.03;;;3.40;;
6850;SDS011;3464;42.728;23.296;2023-11-19T00:33:23;9.20;;;3.50;;
6850;SDS011;3464;42.728;23.296;2023-11-19T00:35:49;10.97;;;3.57;;
6850;SDS011;3464;42.728;23.296;2023-11-19T00:38:17;9.50;;;3.60;;
6850;SDS011;3464;42.728;23.296;2023-11-19T00:40:44;11.30;;;3.40;;
6850;SDS011;3464;42.728;23.296;2023-11-19T00:43:10;10.13;;;3.53;;
6850;SDS011;3464;42.728;23.296;2023-11-19T00:45:37;10.33;;;3.50;;
6850;SDS011;3464;42.728;23.296;2023-11-19T00:48:04;9.30;;;3.50;;
6850;SDS011;3464;42.728;23.296;2023-11-19T00:50:30;10.77;;;3.60;;
6850;SDS011;3464;42.728;23.296;2023-11-19T00:52:57;11.70;;;3.87;;
6850;SDS011;3464;42.728;23.296;2023-11-19T00:55:24;10.63;;;3.67;;
6850;SDS011;3464;42.728;23.296;2023-11-19T00:57:50;10.17;;;3.60;;
6850;SDS011;3464;42.728;23.296;2023-11-19T01:00:17;10.80;;;3.80;;
6850;SDS011;3464;42.728;23.296;2023-11-19T01:02:45;10.57;;;3.50;;
6850;SDS011;3464;42.728;23.296;2023-11-19T01:05:11;10.77;;;3.80;;
6850;SDS011;3464;42.728;23.296;2023-11-19T01:07:40;10.10;;;3.33;;
6850;SDS011;3464;42.728;23.296;2023-11-19T01:10:06;12.10;;;4.03;;
6850;SDS011;3464;42.728;23.296;2023-11-19T01:12:33;13.20;;;4.23;;
6850;SDS011;3464;42.728;23.296;2023-11-19T01:15:00;9.93;;;3.90;;
6850;SDS011;3464;42.728;23.296;2023-11-19T01:17:26;13.60;;;3.40;;
6850;SDS011;3464;42.728;23.296;2023-11-19T01:19:53;10.83;;;3.60;;
6850;SDS011;3464;42.728;23.296;2023-11-19T01:22:19;10.60;;;3.90;;
6850;SDS011;3464;42.728;23.296;2023-11-19T01:24:47;10.60;;;3.90;;
6850;SDS011;3464;42.728;23.296;2023-11-19T01:27:14;11.70;;;4.13;;
6850;SDS011;3464;42.728;23.296;2023-11-19T01:29:40;9.80;;;3.60;;
6850;SDS011;3464;42.728;23.296;2023-11-19T01:32:07;11.40;;;4.23;;
6850;SDS011;3464;42.728;23.296;2023-11-19T01:34:33;9.77;;;4.00;;
6850;SDS011;3464;42.728;23.296;2023-11-19T01:37:00;10.70;;;4.07;;
6850;SDS011;3464;42.728;23.296;2023-11-19T01:39:27;10.83;;;3.40;;
6850;SDS011;3464;42.728;23.296;2023-11-19T01:41:53;11.73;;;3.60;;
6850;SDS011;3464;42.728;23.296;2023-11-19T01:44:20;9.80;;;3.40;;
6850;SDS011;3464;42.728;23.296;2023-11-19T01:46:47;9.77;;;3.27;;
6850;SDS011;3464;42.728;23.296;2023-11-19T01:49:14;10.77;;;3.33;;
6850;SDS011;3464;42.728;23.296;2023-11-19T01:51:40;9.47;;;3.50;;
6850;SDS011;3464;42.728;23.296;2023-11-19T01:54:06;9.70;;;3.70;;
6850;SDS011;3464;42.728;23.296;2023-11-19T01:56:33;8.77;;;2.87;;
6850;SDS011;3464;42.728;23.296;2023-11-19T01:59:00;9.87;;;3.43;;
6850;SDS011;3464;42.728;23.296;2023-11-19T02:01:26;9.60;;;3.20;;
6850;SDS011;3464;42.728;23.296;2023-11-19T02:03:53;11.67;;;3.33;;
6850;SDS011;3464;42.728;23.296;2023-11-19T02:06:19;9.60;;;3.33;;
6850;SDS011;3464;42.728;23.296;2023-11-19T02:08:46;8.90;;;3.10;;
6850;SDS011;3464;42.728;23.296;2023-11-19T02:11:13;11.03;;;3.20;;
6850;SDS011;3464;42.728;23.296;2023-11-19T02:13:39;9.50;;;3.37;;
6850;SDS011;3464;42.728;23.296;2023-11-19T02:16:06;9.77;;;3.17;;
6850;SDS011;3464;42.728;23.296;2023-11-19T02:18:33;10.60;;;3.50;;
6850;SDS011;3464;42.728;23.296;2023-11-19T02:21:00;10.30;;;3.20;;
6850;SDS011;3464;42.728;23.296;2023-11-19T02:23:26;10.00;;;3.50;;
6850;SDS011;3464;42.728;23.296;2023-11-19T02:28:31;10.07;;;3.20;;
6850;SDS011;3464;42.728;23.296;2023-11-19T02:30:58;9.43;;;3.43;;
6850;SDS011;3464;42.728;23.296;2023-11-19T02:33:24;9.37;;;3.60;;
6850;SDS011;3464;42.728;23.296;2023-11-19T02:35:51;9.47;;;3.23;;
6850;SDS011;3464;42.728;23.296;2023-11-19T02:38:18;9.90;;;3.80;;
6850;SDS011;3464;42.728;23.296;2023-11-19T02:40:45;10.97;;;3.30;;
6850;SDS011;3464;42.728;23.296;2023-11-19T02:43:12;9.80;;;3.53;;
6850;SDS011;3464;42.728;23.296;2023-11-19T02:45:38;9.60;;;3.40;;
6850;SDS011;3464;42.728;23.296;2023-11-19T02:48:05;9.67;;;3.60;;
6850;SDS011;3464;42.728;23.296;2023-11-19T02:50:32;11.83;;;4.17;;
6850;SDS011;3464;42.728;23.296;2023-11-19T02:52:59;9.53;;;3.70;;
6850;SDS011;3464;42.728;23.296;2023-11-19T02:55:25;9.77;;;3.30;;
6850;SDS011;3464;42.728;23.296;2023-11-19T02:57:52;10.23;;;3.60;;
6850;SDS011;3464;42.728;23.296;2023-11-19T03:00:20;13.30;;;4.07;;
6850;SDS011;3464;42.728;23.296;2023-11-19T03:02:45;9.47;;;3.40;;
6850;SDS011;3464;42.728;23.296;2023-11-19T03:05:13;9.50;;;3.40;;
6850;SDS011;3464;42.728;23.296;2023-11-19T03:07:40;10.37;;;3.73;;
6850;SDS011;3464;42.728;23.296;2023-11-19T03:10:06;10.10;;;3.60;;
6850;SDS011;3464;42.728;23.296;2023-11-19T03:12:33;11.00;;;4.10;;
6850;SDS011;3464;42.728;23.296;2023-11-19T03:15:00;9.80;;;3.33;;
6850;SDS011;3464;42.728;23.296;2023-11-19T03:17:27;9.43;;;3.17;;
6850;SDS011;3464;42.728;23.296;2023-11-19T03:19:54;8.90;;;2.83;;
6850;SDS011;3464;42.728;23.296;2023-11-19T03:22:21;9.80;;;3.37;;
6850;SDS011;3464;42.728;23.296;2023-11-19T03:24:50;9.40;;;3.17;;
6850;SDS011;3464;42.728;23.296;2023-11-19T03:27:15;9.33;;;3.40;;
6850;SDS011;3464;42.728;23.296;2023-11-19T03:29:42;9.30;;;3.37;;
6850;SDS011;3464;42.728;23.296;2023-11-19T03:32:09;10.43;;;3.43;;
6850;SDS011;3464;42.728;23.296;2023-11-19T03:34:36;9.70;;;3.27;;
6850;SDS011;3464;42.728;23.296;2023-11-19T03:37:03;9.70;;;3.47;;
6850;SDS011;3464;42.728;23.296;2023-11-19T03:39:29;9.60;;;3.47;;
6850;SDS011;3464;42.728;23.296;2023-11-19T03:41:56;8.67;;;2.90;;
6850;SDS011;3464;42.728;23.296;2023-11-19T03:44:23;11.77;;;3.63;;
6850;SDS011;3464;42.728;23.296;2023-11-19T03:46:49;10.67;;;3.60;;
6850;SDS011;3464;42.728;23.296;2023-11-19T03:49:16;9.83;;;3.67;;
6850;SDS011;3464;42.728;23.296;2023-11-19T03:51:45;9.63;;;3.47;;
6850;SDS011;3464;42.728;23.296;2023-11-19T03:54:12;10.80;;;3.53;;
6850;SDS011;3464;42.728;23.296;2023-11-19T03:56:38;10.30;;;3.60;;
6850;SDS011;3464;42.728;23.296;2023-11-19T03:59:06;9.73;;;3.67;;
6850;SDS011;3464;42.728;23.296;2023-11-19T04:01:33;9.93;;;3.40;;
6850;SDS011;3464;42.728;23.296;2023-11-19T04:04:00;9.80;;;3.73;;
6850;SDS011;3464;42.728;23.296;2023-11-19T04:06:26;9.43;;;3.20;;
6850;SDS011;3464;42.728;23.296;2023-11-19T04:08:54;9.40;;;3.33;;
6850;SDS011;3464;42.728;23.296;2023-11-19T04:11:20;10.13;;;3.43;;
6850;SDS011;3464;42.728;23.296;2023-11-19T04:13:47;10.23;;;3.90;;
6850;SDS011;3464;42.728;23.296;2023-11-19T04:16:14;10.20;;;3.70;;
6850;SDS011;3464;42.728;23.296;2023-11-19T04:18:40;12.07;;;4.33;;
6850;SDS011;3464;42.728;23.296;2023-11-19T04:21:07;10.40;;;4.00;;
6850;SDS011;3464;42.728;23.296;2023-11-19T04:23:33;10.30;;;3.97;;
6850;SDS011;3464;42.728;23.296;2023-11-19T04:26:03;11.00;;;3.77;;
6850;SDS011;3464;42.728;23.296;2023-11-19T04:28:30;10.93;;;4.20;;
6850;SDS011;3464;42.728;23.296;2023-11-19T04:30:57;10.00;;;3.60;;
6850;SDS011;3464;42.728;23.296;2023-11-19T04:33:23;10.80;;;3.77;;
6850;SDS011;3464;42.728;23.296;2023-11-19T04:35:50;10.00;;;3.87;;
6850;SDS011;3464;42.728;23.296;2023-11-19T04:38:17;10.70;;;4.13;;
6850;SDS011;3464;42.728;23.296;2023-11-19T04:40:43;11.33;;;4.20;;
6850;SDS011;3464;42.728;23.296;2023-11-19T04:43:10;10.60;;;4.00;;
6850;SDS011;3464;42.728;23.296;2023-11-19T04:45:36;9.57;;;3.50;;
6850;SDS011;3464;42.728;23.296;2023-11-19T04:48:03;10.83;;;4.27;;
6850;SDS011;3464;42.728;23.296;2023-11-19T04:50:30;11.13;;;4.43;;
6850;SDS011;3464;42.728;23.296;2023-11-19T04:52:57;10.80;;;4.07;;
6850;SDS011;3464;42.728;23.296;2023-11-19T04:55:23;13.13;;;4.03;;
6850;SDS011;3464;42.728;23.296;2023-11-19T04:57:50;11.23;;;3.90;;
6850;SDS011;3464;42.728;23.296;2023-11-19T05:00:17;13.07;;;4.00;;
6850;SDS011;3464;42.728;23.296;2023-11-19T05:02:43;11.73;;;4.40;;
6850;SDS011;3464;42.728;23.296;2023-11-19T05:05:11;11.47;;;3.90;;
6850;SDS011;3464;42.728;23.296;2023-11-19T05:07:38;10.30;;;3.87;;
6850;SDS011;3464;42.728;23.296;2023-11-19T05:10:06;11.00;;;3.70;;
6850;SDS011;3464;42.728;23.296;2023-11-19T05:12:33;10.60;;;3.23;;
6850;SDS011;3464;42.728;23.296;2023-11-19T05:15:02;10.07;;;3.97;;
6850;SDS011;3464;42.728;23.296;2023-11-19T05:17:29;10.63;;;3.70;;
6850;SDS011;3464;42.728;23.296;2023-11-19T05:19:57;10.60;;;4.00;;
6850;SDS011;3464;42.728;23.296;2023-11-19T05:22:23;9.67;;;3.17;;
6850;SDS011;3464;42.728;23.296;2023-11-19T05:24:50;11.17;;;3.60;;
6850;SDS011;3464;42.728;23.296;2023-11-19T05:27:17;10.57;;;3.93;;
6850;SDS011;3464;42.728;23.296;2023-11-19T05:29:43;10.37;;;3.70;;
6850;SDS011;3464;42.728;23.296;2023-11-19T05:32:10;9.97;;;3.60;;
6850;SDS011;3464;42.728;23.296;2023-11-19T05:34:37;10.37;;;3.83;;
6850;SDS011;3464;42.728;23.296;2023-11-19T05:37:03;10.07;;;3.57;;
6850;SDS011;3464;42.728;23.296;2023-11-19T05:39:30;10.73;;;3.70;;
6850;SDS011;3464;42.728;23.296;2023-11-19T05:41:57;10.23;;;3.97;;
6850;SDS011;3464;42.728;23.296;2023-11-19T05:44:23;11.43;;;4.30;;
6850;SDS011;3464;42.728;23.296;2023-11-19T05:46:50;11.60;;;4.27;;
6850;SDS011;3464;42.728;23.296;2023-11-19T05:49:17;13.60;;;4.20;;
6850;SDS011;3464;42.728;23.296;2023-11-19T05:51:43;10.07;;;3.77;;
6850;SDS011;3464;42.728;23.296;2023-11-19T05:54:12;10.33;;;4.17;;
6850;SDS011;3464;42.728;23.296;2023-11-19T05:56:39;10.87;;;3.73;;
6850;SDS011;3464;42.728;23.296;2023-11-19T05:59:05;13.60;;;4.13;;
6850;SDS011;3464;42.728;23.296;2023-11-19T06:01:34;12.23;;;4.53;;
6850;SDS011;3464;42.728;23.296;2023-11-19T06:04:00;11.40;;;4.20;;
6850;SDS011;3464;42.728;23.296;2023-11-19T06:06:27;11.33;;;4.40;;
6850;SDS011;3464;42.728;23.296;2023-11-19T06:08:55;10.80;;;4.20;;
6850;SDS011;3464;42.728;23.296;2023-11-19T06:11:21;10.80;;;4.30;;
6850;SDS011;3464;42.728;23.296;2023-11-19T06:13:48;11.90;;;4.07;;
6850;SDS011;3464;42.728;23.296;2023-11-19T06:16:15;10.90;;;3.80;;
6850;SDS011;3464;42.728;23.296;2023-11-19T06:18:41;10.57;;;3.80;;
6850;SDS011;3464;42.728;23.296;2023-11-19T06:21:08;12.17;;;4.40;;
6850;SDS011;3464;42.728;23.296;2023-11-19T06:23:34;12.20;;;4.23;;
6850;SDS011;3464;42.728;23.296;2023-11-19T06:26:01;13.50;;;5.00;;
6850;SDS011;3464;42.728;23.296;2023-11-19T06:28:28;11.00;;;4.03;;
6850;SDS011;3464;42.728;23.296;2023-11-19T06:30:54;10.63;;;4.20;;
6850;SDS011;3464;42.728;23.296;2023-11-19T06:33:21;9.70;;;3.33;;
6850;SDS011;3464;42.728;23.296;2023-11-19T06:35:48;11.90;;;4.00;;
6850;SDS011;3464;42.728;23.296;2023-11-19T06:38:14;10.60;;;3.83;;
6850;SDS011;3464;42.728;23.296;2023-11-19T06:40:43;10.43;;;4.00;;
6850;SDS011;3464;42.728;23.296;2023-11-19T06:43:10;10.23;;;4.00;;
6850;SDS011;3464;42.728;23.296;2023-11-19T06:45:37;10.40;;;4.37;;
6850;SDS011;3464;42.728;23.296;2023-11-19T06:48:04;10.90;;;4.27;;
6850;SDS011;3464;42.728;23.296;2023-11-19T06:50:31;10.97;;;4.23;;
6850;SDS011;3464;42.728;23.296;2023-11-19T06:52:58;10.70;;;4.17;;
6850;SDS011;3464;42.728;23.296;2023-11-19T06:55:26;10.37;;;3.80;;
6850;SDS011;3464;42.728;23.296;2023-11-19T06:57:51;10.87;;;3.93;;
6850;SDS011;3464;42.728;23.296;2023-11-19T07:00:19;10.83;;;4.47;;
6850;SDS011;3464;42.728;23.296;2023-11-19T07:02:46;10.33;;;4.03;;
6850;SDS011;3464;42.728;23.296;2023-11-19T07:05:14;10.27;;;3.90;;
6850;SDS011;3464;42.728;23.296;2023-11-19T07:07:40;10.73;;;4.20;;
6850;SDS011;3464;42.728;23.296;2023-11-19T07:10:07;10.90;;;4.43;;
6850;SDS011;3464;42.728;23.296;2023-11-19T07:12:34;11.43;;;4.23;;
6850;SDS011;3464;42.728;23.296;2023-11-19T07:15:01;11.73;;;4.43;;
6850;SDS011;3464;42.728;23.296;2023-11-19T07:17:29;11.13;;;4.17;;
6850;SDS011;3464;42.728;23.296;2023-11-19T07:19:55;10.20;;;3.93;;
6850;SDS011;3464;42.728;23.296;2023-11-19T07:22:22;11.40;;;4.13;;
6850;SDS011;3464;42.728;23.296;2023-11-19T07:24:49;11.73;;;4.40;;
6850;SDS011;3464;42.728;23.296;2023-11-19T07:27:15;10.63;;;4.10;;
6850;SDS011;3464;42.728;23.296;2023-11-19T07:29:43;10.90;;;4.23;;
6850;SDS011;3464;42.728;23.296;2023-11-19T07:32:10;12.00;;;4.40;;
6850;SDS011;3464;42.728;23.296;2023-11-19T07:34:36;11.90;;;4.20;;
6850;SDS011;3464;42.728;23.296;2023-11-19T07:37:03;13.90;;;4.20;;
6850;SDS011;3464;42.728;23.296;2023-11-19T07:39:30;11.57;;;4.60;;
6850;SDS011;3464;42.728;23.296;2023-11-19T07:41:57;11.63;;;4.37;;
6850;SDS011;3464;42.728;23.296;2023-11-19T07:44:23;11.67;;;4.73;;
6850;SDS011;3464;42.728;23.296;2023-11-19T07:46:50;12.47;;;4.93;;
6850;SDS011;3464;42.728;23.296;2023-11-19T07:49:17;11.70;;;4.67;;
6850;SDS011;3464;42.728;23.296;2023-11-19T07:51:43;12.70;;;4.87;;
6850;SDS011;3464;42.728;23.296;2023-11-19T07:54:10;11.70;;;4.80;;
6850;SDS011;3464;42.728;23.296;2023-11-19T07:56:37;12.90;;;5.10;;
6850;SDS011;3464;42.728;23.296;2023-11-19T07:59:04;11.87;;;5.10;;
6850;SDS011;3464;42.728;23.296;2023-11-19T08:01:31;10.50;;;4.40;;
6850;SDS011;3464;42.728;23.296;2023-11-19T08:03:57;12.77;;;4.57;;
6850;SDS011;3464;42.728;23.296;2023-11-19T08:06:24;11.20;;;4.57;;
6850;SDS011;3464;42.728;23.296;2023-11-19T08:08:51;12.30;;;5.00;;
6850;SDS011;3464;42.728;23.296;2023-11-19T08:11:18;13.00;;;4.90;;
6850;SDS011;3464;42.728;23.296;2023-11-19T08:13:44;12.10;;;4.43;;
6850;SDS011;3464;42.728;23.296;2023-11-19T08:16:11;11.80;;;4.00;;
6850;SDS011;3464;42.728;23.296;2023-11-19T08:18:37;11.70;;;4.13;;
6850;SDS011;3464;42.728;23.296;2023-11-19T08:21:04;13.20;;;5.20;;
6850;SDS011;3464;42.728;23.296;2023-11-19T08:23:32;14.00;;;4.70;;
6850;SDS011;3464;42.728;23.296;2023-11-19T08:26:00;12.20;;;4.90;;
6850;SDS011;3464;42.728;23.296;2023-11-19T08:28:27;12.00;;;4.67;;
6850;SDS011;3464;42.728;23.296;2023-11-19T08:30:54;12.73;;;4.40;;
6850;SDS011;3464;42.728;23.296;2023-11-19T08:33:21;11.73;;;4.20;;
6850;SDS011;3464;42.728;23.296;2023-11-19T08:35:48;11.50;;;4.30;;
6850;SDS011;3464;42.728;23.296;2023-11-19T08:38:14;11.73;;;4.53;;
6850;SDS011;3464;42.728;23.296;2023-11-19T08:40:42;14.33;;;4.20;;
6850;SDS011;3464;42.728;23.296;2023-11-19T08:43:08;14.53;;;4.70;;
6850;SDS011;3464;42.728;23.296;2023-11-19T08:45:35;12.53;;;5.20;;
6850;SDS011;3464;42.728;23.296;2023-11-19T08:48:02;11.23;;;4.20;;
6850;SDS011;3464;42.728;23.296;2023-11-19T08:50:29;11.03;;;4.33;;
6850;SDS011;3464;42.728;23.296;2023-11-19T08:52:56;11.37;;;4.50;;
6850;SDS011;3464;42.728;23.296;2023-11-19T08:55:24;10.70;;;4.00;;
6850;SDS011;3464;42.728;23.296;2023-11-19T08:57:54;10.63;;;4.00;;
6850;SDS011;3464;42.728;23.296;2023-11-19T09:00:26;10.90;;;4.03;;
6850;SDS011;3464;42.728;23.296;2023-11-19T09:02:56;11.93;;;4.13;;
6850;SDS011;3464;42.728;23.296;2023-11-19T09:05:22;11.27;;;3.83;;
6850;SDS011;3464;42.728;23.296;2023-11-19T09:07:50;11.60;;;4.43;;
6850;SDS011;3464;42.728;23.296;2023-11-19T09:10:20;13.27;;;4.53;;
6850;SDS011;3464;42.728;23.296;2023-11-19T09:12:49;11.20;;;4.27;;
6850;SDS011;3464;42.728;23.296;2023-11-19T09:15:17;11.23;;;4.47;;
6850;SDS011;3464;42.728;23.296;2023-11-19T09:17:46;11.00;;;4.37;;
6850;SDS011;3464;42.728;23.296;2023-11-19T09:20:14;14.50;;;5.77;;
6850;SDS011;3464;42.728;23.296;2023-11-19T09:22:42;11.83;;;4.80;;
6850;SDS011;3464;42.728;23.296;2023-11-19T09:25:10;13.07;;;4.97;;
6850;SDS011;3464;42.728;23.296;2023-11-19T09:27:42;11.30;;;4.17;;
6850;SDS011;3464;42.728;23.296;2023-11-19T09:30:11;10.90;;;4.20;;
6850;SDS011;3464;42.728;23.296;2023-11-19T09:32:43;10.93;;;4.43;;
6850;SDS011;3464;42.728;23.296;2023-11-19T09:35:15;11.20;;;4.53;;
6850;SDS011;3464;42.728;23.296;2023-11-19T09:37:43;11.83;;;4.27;;
6850;SDS011;3464;42.728;23.296;2023-11-19T09:40:09;14.50;;;4.87;;
6850;SDS011;3464;42.728;23.296;2023-11-19T09:42:40;10.50;;;3.63;;
6850;SDS011;3464;42.728;23.296;2023-11-19T09:45:13;11.50;;;3.60;;
6850;SDS011;3464;42.728;23.296;2023-11-19T09:47:49;11.63;;;3.80;;
6850;SDS011;3464;42.728;23.296;2023-11-19T09:50:18;11.27;;;4.47;;
6850;SDS011;3464;42.728;23.296;2023-11-19T09:52:44;10.37;;;4.23;;
6850;SDS011;3464;42.728;23.296;2023-11-19T09:55:11;12.80;;;4.93;;
6850;SDS011;3464;42.728;23.296;2023-11-19T09:57:39;11.80;;;4.00;;
6850;SDS011;3464;42.728;23.296;2023-11-19T10:00:05;12.70;;;3.83;;
6850;SDS011;3464;42.728;23.296;2023-11-19T10:02:34;9.80;;;3.47;;
6850;SDS011;3464;42.728;23.296;2023-11-19T10:05:02;9.97;;;3.50;;
6850;SDS011;3464;42.728;23.296;2023-11-19T10:07:28;13.07;;;4.00;;
6850;SDS011;3464;42.728;23.296;2023-11-19T10:09:55;12.20;;;3.60;;
6850;SDS011;3464;42.728;23.296;2023-11-19T10:12:22;10.53;;;3.67;;
6850;SDS011;3464;42.728;23.296;2023-11-19T10:14:49;11.53;;;4.00;;
6850;SDS011;3464;42.728;23.296;2023-11-19T10:17:16;11.13;;;4.17;;
6850;SDS011;3464;42.728;23.296;2023-11-19T10:19:42;11.33;;;3.97;;
6850;SDS011;3464;42.728;23.296;2023-11-19T10:22:09;10.97;;;3.70;;
6850;SDS011;3464;42.728;23.296;2023-11-19T10:24:35;11.40;;;3.50;;
6850;SDS011;3464;42.728;23.296;2023-11-19T10:27:02;12.40;;;4.20;;
6850;SDS011;3464;42.728;23.296;2023-11-19T10:29:29;10.97;;;3.50;;
6850;SDS011;3464;42.728;23.296;2023-11-19T10:31:56;11.30;;;3.83;;
6850;SDS011;3464;42.728;23.296;2023-11-19T10:34:25;9.90;;;3.40;;
6850;SDS011;3464;42.728;23.296;2023-11-19T10:36:52;10.50;;;3.57;;
6850;SDS011;3464;42.728;23.296;2023-11-19T10:39:18;9.73;;;3.20;;
6850;SDS011;3464;42.728;23.296;2023-11-19T10:41:45;10.67;;;3.40;;
6850;SDS011;3464;42.728;23.296;2023-11-19T10:44:12;10.20;;;3.40;;
6850;SDS011;3464;42.728;23.296;2023-11-19T10:46:39;9.70;;;3.20;;
6850;SDS011;3464;42.728;23.296;2023-11-19T10:49:06;11.60;;;3.33;;
6850;SDS011;3464;42.728;23.296;2023-11-19T10:51:33;12.93;;;4.10;;
6850;SDS011;3464;42.728;23.296;2023-11-19T10:54:03;9.47;;;2.97;;
6850;SDS011;3464;42.728;23.296;2023-11-19T10:56:29;11.60;;;3.20;;
6850;SDS011;3464;42.728;23.296;2023-11-19T10:58:55;10.40;;;3.77;;
6850;SDS011;3464;42.728;23.296;2023-11-19T11:01:25;9.40;;;3.17;;
6850;SDS011;3464;42.728;23.296;2023-11-19T11:03:52;11.23;;;3.57;;
6850;SDS011;3464;42.728;23.296;2023-11-19T11:06:18;11.00;;;3.20;;
6850;SDS011;3464;42.728;23.296;2023-11-19T11:08:46;10.63;;;3.27;;
6850;SDS011;3464;42.728;23.296;2023-11-19T11:11:13;10.03;;;3.17;;
6850;SDS011;3464;42.728;23.296;2023-11-19T11:13:39;9.83;;;3.07;;
6850;SDS011;3464;42.728;23.296;2023-11-19T11:16:05;10.73;;;3.53;;
6850;SDS011;3464;42.728;23.296;2023-11-19T11:18:32;13.93;;;3.87;;
6850;SDS011;3464;42.728;23.296;2023-11-19T11:21:00;10.87;;;3.47;;
6850;SDS011;3464;42.728;23.296;2023-11-19T11:23:40;10.90;;;3.87;;
6850;SDS011;3464;42.728;23.296;2023-11-19T11:38:00;11.13;;;3.60;;
6850;SDS011;3464;42.728;23.296;2023-11-19T11:40:28;12.60;;;3.87;;
6850;SDS011;3464;42.728;23.296;2023-11-19T11:42:54;13.90;;;3.50;;
6850;SDS011;3464;42.728;23.296;2023-11-19T11:45:35;10.27;;;3.37;;
6850;SDS011;3464;42.728;23.296;2023-11-19T11:50:34;10.70;;;3.67;;
6850;SDS011;3464;42.728;23.296;2023-11-19T11:55:54;11.90;;;4.40;;
6850;SDS011;3464;42.728;23.296;2023-11-19T11:58:26;10.43;;;3.50;;
6850;SDS011;3464;42.728;23.296;2023-11-19T12:00:53;9.93;;;3.07;;
6850;SDS011;3464;42.728;23.296;2023-11-19T12:03:22;10.57;;;2.83;;
6850;SDS011;3464;42.728;23.296;2023-11-19T12:05:50;9.63;;;2.80;;
6850;SDS011;3464;42.728;23.296;2023-11-19T12:08:18;10.17;;;3.00;;
6850;SDS011;3464;42.728;23.296;2023-11-19T12:10:50;9.90;;;3.13;;
6850;SDS011;3464;42.728;23.296;2023-11-19T12:13:18;10.70;;;3.37;;
6850;SDS011;3464;42.728;23.296;2023-11-19T12:18:37;10.93;;;3.27;;
6850;SDS011;3464;42.728;23.296;2023-11-19T12:21:03;10.10;;;3.60;;
6850;SDS011;3464;42.728;23.296;2023-11-19T12:23:30;10.17;;;3.30;;
6850;SDS011;3464;42.728;23.296;2023-11-19T12:28:36;9.33;;;3.20;;
6850;SDS011;3464;42.728;23.296;2023-11-19T12:31:07;10.07;;;3.20;;
6850;SDS011;3464;42.728;23.296;2023-11-19T12:33:35;10.87;;;3.40;;
6850;SDS011;3464;42.728;23.296;2023-11-19T12:36:01;10.53;;;3.67;;
6850;SDS011;3464;42.728;23.296;2023-11-19T12:38:28;10.83;;;3.70;;
6850;SDS011;3464;42.728;23.296;2023-11-19T12:43:33;10.97;;;3.40;;
6850;SDS011;3464;42.728;23.296;2023-11-19T12:46:00;14.50;;;4.10;;
6850;SDS011;3464;42.728;23.296;2023-11-19T12:48:27;10.80;;;3.83;;
6850;SDS011;3464;42.728;23.296;2023-11-19T12:50:54;11.73;;;4.00;;
6850;SDS011;3464;42.728;23.296;2023-11-19T12:53:22;15.13;;;4.27;;
6850;SDS011;3464;42.728;23.296;2023-11-19T12:55:48;10.17;;;3.53;;
6850;SDS011;3464;42.728;23.296;2023-11-19T12:58:34;10.67;;;3.73;;
6850;SDS011;3464;42.728;23.296;2023-11-19T13:01:02;10.97;;;3.73;;
6850;SDS011;3464;42.728;23.296;2023-11-19T13:03:33;11.60;;;4.47;;
6850;SDS011;3464;42.728;23.296;2023-11-19T13:06:03;11.70;;;4.00;;
6850;SDS011;3464;42.728;23.296;2023-11-19T13:08:35;10.90;;;3.70;;
6850;SDS011;3464;42.728;23.296;2023-11-19T13:11:02;11.90;;;4.20;;
6850;SDS011;3464;42.728;23.296;2023-11-19T13:13:28;12.87;;;4.90;;
6850;SDS011;3464;42.728;23.296;2023-11-19T13:16:02;12.80;;;4.73;;
6850;SDS011;3464;42.728;23.296;2023-11-19T13:18:28;13.73;;;4.00;;
6850;SDS011;3464;42.728;23.296;2023-11-19T13:20:55;13.20;;;4.47;;
6850;SDS011;3464;42.728;23.296;2023-11-19T13:23:24;11.80;;;4.73;;
6850;SDS011;3464;42.728;23.296;2023-11-19T13:25:53;12.00;;;4.50;;
6850;SDS011;3464;42.728;23.296;2023-11-19T13:28:20;11.50;;;4.27;;
6850;SDS011;3464;42.728;23.296;2023-11-19T13:30:50;12.63;;;4.70;;
6850;SDS011;3464;42.728;23.296;2023-11-19T13:33:20;12.87;;;4.53;;
6850;SDS011;3464;42.728;23.296;2023-11-19T13:35:46;13.60;;;4.83;;
6850;SDS011;3464;42.728;23.296;2023-11-19T13:38:14;13.50;;;4.80;;
6850;SDS011;3464;42.728;23.296;2023-11-19T13:40:40;13.00;;;4.70;;
6850;SDS011;3464;42.728;23.296;2023-11-19T13:43:07;10.60;;;4.00;;
6850;SDS011;3464;42.728;23.296;2023-11-19T13:45:47;11.70;;;4.70;;
6850;SDS011;3464;42.728;23.296;2023-11-19T13:48:15;16.17;;;4.60;;
6850;SDS011;3464;42.728;23.296;2023-11-19T13:50:41;11.93;;;4.43;;
6850;SDS011;3464;42.728;23.296;2023-11-19T13:53:08;12.57;;;4.33;;
6850;SDS011;3464;42.728;23.296;2023-11-19T13:55:37;13.60;;;4.80;;
6850;SDS011;3464;42.728;23.296;2023-11-19T13:58:04;13.00;;;5.03;;
6850;SDS011;3464;42.728;23.296;2023-11-19T14:00:34;12.93;;;4.67;;
6850;SDS011;3464;42.728;23.296;2023-11-19T14:03:02;14.53;;;4.67;;
6850;SDS011;3464;42.728;23.296;2023-11-19T14:05:30;11.20;;;4.03;;
6850;SDS011;3464;42.728;23.296;2023-11-19T14:07:57;11.73;;;4.50;;
6850;SDS011;3464;42.728;23.296;2023-11-19T14:10:23;13.13;;;4.57;;
6850;SDS011;3464;42.728;23.296;2023-11-19T14:12:51;14.67;;;4.70;;
6850;SDS011;3464;42.728;23.296;2023-11-19T14:15:18;12.17;;;4.33;;
6850;SDS011;3464;42.728;23.296;2023-11-19T14:17:44;11.20;;;4.20;;
6850;SDS011;3464;42.728;23.296;2023-11-19T14:20:11;11.47;;;4.43;;
6850;SDS011;3464;42.728;23.296;2023-11-19T14:22:40;16.90;;;4.87;;
6850;SDS011;3464;42.728;23.296;2023-11-19T14:25:06;12.93;;;4.80;;
6850;SDS011;3464;42.728;23.296;2023-11-19T14:27:33;12.43;;;4.80;;
6850;SDS011;3464;42.728;23.296;2023-11-19T14:30:00;12.60;;;4.70;;
6850;SDS011;3464;42.728;23.296;2023-11-19T14:32:26;12.93;;;4.43;;
6850;SDS011;3464;42.728;23.296;2023-11-19T14:34:53;13.17;;;4.93;;
6850;SDS011;3464;42.728;23.296;2023-11-19T14:37:20;13.93;;;5.17;;
6850;SDS011;3464;42.728;23.296;2023-11-19T14:39:46;15.40;;;5.30;;
6850;SDS011;3464;42.728;23.296;2023-11-19T14:42:13;12.80;;;5.10;;
6850;SDS011;3464;42.728;23.296;2023-11-19T14:44:40;11.70;;;4.87;;
6850;SDS011;3464;42.728;23.296;2023-11-19T14:47:06;12.03;;;4.77;;
6850;SDS011;3464;42.728;23.296;2023-11-19T14:49:36;13.10;;;5.20;;
6850;SDS011;3464;42.728;23.296;2023-11-19T14:52:04;12.93;;;4.87;;
6850;SDS011;3464;42.728;23.296;2023-11-19T14:54:30;13.30;;;4.80;;
6850;SDS011;3464;42.728;23.296;2023-11-19T14:56:58;12.33;;;4.80;;
6850;SDS011;3464;42.728;23.296;2023-11-19T14:59:57;13.67;;;5.50;;
6850;SDS011;3464;42.728;23.296;2023-11-19T15:02:23;14.93;;;6.00;;
6850;SDS011;3464;42.728;23.296;2023-11-19T15:04:50;16.97;;;6.80;;
6850;SDS011;3464;42.728;23.296;2023-11-19T15:07:17;23.13;;;8.90;;
6850;SDS011;3464;42.728;23.296;2023-11-19T15:09:45;17.00;;;7.43;;
6850;SDS011;3464;42.728;23.296;2023-11-19T15:12:13;19.37;;;8.30;;
6850;SDS011;3464;42.728;23.296;2023-11-19T15:17:32;17.67;;;8.00;;
6850;SDS011;3464;42.728;23.296;2023-11-19T15:20:01;16.20;;;7.40;;
6850;SDS011;3464;42.728;23.296;2023-11-19T15:22:51;17.83;;;7.70;;